sensor_id;sensor_type;location;lat;lon;timestamp;pressure;altitude;pressure_sealevel;temperature;humidity
58658;BME280;44428;45.630;13.786;2022-07-10T00:00:32;101693.28;;;20.57;53.59
58658;BME280;44428;45.630;13.786;2022-07-10T00:02:58;101706.00;;;20.55;53.38
58658;BME280;44428;45.630;13.786;2022-07-10T00:05:25;101704.28;;;20.54;53.67
58658;BME280;44428;45.630;13.786;2022-07-10T00:07:51;101710.66;;;20.53;53.54
58658;BME280;44428;45.630;13.786;2022-07-10T00:10:18;101702.88;;;20.50;54.18
58658;BME280;44428;45.630;13.786;2022-07-10T00:12:45;101710.50;;;20.45;54.50
58658;BME280;44428;45.630;13.786;2022-07-10T00:15:12;101709.53;;;20.46;54.95
58658;BME280;44428;45.630;13.786;2022-07-10T00:17:38;101695.09;;;20.47;54.73
58658;BME280;44428;45.630;13.786;2022-07-10T00:20:06;101696.53;;;20.42;54.85
58658;BME280;44428;45.630;13.786;2022-07-10T00:22:35;101692.47;;;20.38;55.29
58658;BME280;44428;45.630;13.786;2022-07-10T00:25:01;101688.25;;;20.35;55.50
58658;BME280;44428;45.630;13.786;2022-07-10T00:27:27;101686.28;;;20.37;55.40
58658;BME280;44428;45.630;13.786;2022-07-10T00:29:53;101694.75;;;20.32;55.61
58658;BME280;44428;45.630;13.786;2022-07-10T00:32:18;101688.84;;;20.29;55.50
58658;BME280;44428;45.630;13.786;2022-07-10T00:34:44;101679.09;;;20.28;55.65
58658;BME280;44428;45.630;13.786;2022-07-10T00:37:11;101681.78;;;20.28;56.21
58658;BME280;44428;45.630;13.786;2022-07-10T00:39:37;101680.94;;;20.27;56.56
58658;BME280;44428;45.630;13.786;2022-07-10T00:42:21;101682.38;;;20.22;56.67
58658;BME280;44428;45.630;13.786;2022-07-10T00:44:47;101684.75;;;20.25;56.71
58658;BME280;44428;45.630;13.786;2022-07-10T00:47:12;101683.75;;;20.26;56.59
58658;BME280;44428;45.630;13.786;2022-07-10T00:49:43;101688.59;;;20.22;56.37
58658;BME280;44428;45.630;13.786;2022-07-10T00:52:12;101678.97;;;20.20;57.14
58658;BME280;44428;45.630;13.786;2022-07-10T00:54:41;101678.72;;;20.13;57.14
58658;BME280;44428;45.630;13.786;2022-07-10T00:57:07;101676.47;;;20.08;57.47
58658;BME280;44428;45.630;13.786;2022-07-10T00:59:34;101673.09;;;20.06;57.27
58658;BME280;44428;45.630;13.786;2022-07-10T01:02:02;101670.00;;;20.01;57.46
58658;BME280;44428;45.630;13.786;2022-07-10T01:04:29;101662.38;;;19.97;57.69
58658;BME280;44428;45.630;13.786;2022-07-10T01:06:55;101662.97;;;20.00;57.46
58658;BME280;44428;45.630;13.786;2022-07-10T01:09:21;101657.03;;;19.97;57.41
58658;BME280;44428;45.630;13.786;2022-07-10T01:11:46;101669.59;;;19.96;57.56
58658;BME280;44428;45.630;13.786;2022-07-10T01:14:12;101666.31;;;20.02;57.43
58658;BME280;44428;45.630;13.786;2022-07-10T01:16:40;101661.53;;;19.96;57.60
58658;BME280;44428;45.630;13.786;2022-07-10T01:19:06;101656.47;;;19.93;58.08
58658;BME280;44428;45.630;13.786;2022-07-10T01:21:33;101645.75;;;19.93;58.74
58658;BME280;44428;45.630;13.786;2022-07-10T01:24:00;101660.16;;;19.92;59.16
58658;BME280;44428;45.630;13.786;2022-07-10T01:26:29;101671.19;;;19.89;59.23
58658;BME280;44428;45.630;13.786;2022-07-10T01:28:55;101664.69;;;19.92;59.71
58658;BME280;44428;45.630;13.786;2022-07-10T01:31:27;101660.66;;;20.05;59.63
58658;BME280;44428;45.630;13.786;2022-07-10T01:33:53;101656.88;;;19.98;60.09
58658;BME280;44428;45.630;13.786;2022-07-10T01:36:21;101658.72;;;19.98;59.93
58658;BME280;44428;45.630;13.786;2022-07-10T01:38:46;101664.09;;;19.98;60.18
58658;BME280;44428;45.630;13.786;2022-07-10T01:41:12;101653.13;;;19.91;60.21
58658;BME280;44428;45.630;13.786;2022-07-10T01:43:38;101647.75;;;19.91;60.05
58658;BME280;44428;45.630;13.786;2022-07-10T01:46:08;101654.78;;;19.92;59.84
58658;BME280;44428;45.630;13.786;2022-07-10T01:48:37;101652.22;;;20.00;59.77
58658;BME280;44428;45.630;13.786;2022-07-10T01:51:03;101641.50;;;20.00;59.78
58658;BME280;44428;45.630;13.786;2022-07-10T01:53:29;101635.84;;;20.03;60.02
58658;BME280;44428;45.630;13.786;2022-07-10T01:55:55;101626.75;;;20.14;59.33
58658;BME280;44428;45.630;13.786;2022-07-10T01:58:21;101637.06;;;20.19;59.25
58658;BME280;44428;45.630;13.786;2022-07-10T02:00:47;101632.66;;;20.18;59.52
58658;BME280;44428;45.630;13.786;2022-07-10T02:03:13;101628.69;;;20.22;59.33
58658;BME280;44428;45.630;13.786;2022-07-10T02:05:57;101640.81;;;20.26;59.54
58658;BME280;44428;45.630;13.786;2022-07-10T02:08:23;101636.84;;;20.30;59.43
58658;BME280;44428;45.630;13.786;2022-07-10T02:10:49;101636.53;;;20.33;59.04
58658;BME280;44428;45.630;13.786;2022-07-10T02:13:14;101632.59;;;20.37;59.14
58658;BME280;44428;45.630;13.786;2022-07-10T02:15:43;101632.28;;;20.40;59.17
58658;BME280;44428;45.630;13.786;2022-07-10T02:18:08;101628.28;;;20.44;59.22
58658;BME280;44428;45.630;13.786;2022-07-10T02:20:34;101630.84;;;20.46;58.94
58658;BME280;44428;45.630;13.786;2022-07-10T02:23:01;101632.97;;;20.52;58.44
58658;BME280;44428;45.630;13.786;2022-07-10T02:25:27;101631.13;;;20.52;57.87
58658;BME280;44428;45.630;13.786;2022-07-10T02:27:53;101633.34;;;20.57;57.60
58658;BME280;44428;45.630;13.786;2022-07-10T02:30:18;101623.47;;;20.57;57.18
58658;BME280;44428;45.630;13.786;2022-07-10T02:32:44;101624.84;;;20.62;57.49
58658;BME280;44428;45.630;13.786;2022-07-10T02:35:10;101620.84;;;20.66;57.03
58658;BME280;44428;45.630;13.786;2022-07-10T02:37:36;101624.53;;;20.65;56.98
58658;BME280;44428;45.630;13.786;2022-07-10T02:40:02;101615.47;;;20.66;56.69
58658;BME280;44428;45.630;13.786;2022-07-10T02:42:28;101608.44;;;20.65;55.68
58658;BME280;44428;45.630;13.786;2022-07-10T02:44:54;101607.06;;;20.61;56.07
58658;BME280;44428;45.630;13.786;2022-07-10T02:47:19;101616.09;;;20.59;56.49
58658;BME280;44428;45.630;13.786;2022-07-10T02:49:45;101621.03;;;20.54;56.47
58658;BME280;44428;45.630;13.786;2022-07-10T02:52:10;101624.00;;;20.51;57.12
58658;BME280;44428;45.630;13.786;2022-07-10T02:54:37;101623.72;;;20.54;57.76
58658;BME280;44428;45.630;13.786;2022-07-10T02:57:03;101611.31;;;20.53;57.66
58658;BME280;44428;45.630;13.786;2022-07-10T02:59:29;101619.78;;;20.58;57.68
58658;BME280;44428;45.630;13.786;2022-07-10T03:01:55;101622.16;;;20.62;57.73
58658;BME280;44428;45.630;13.786;2022-07-10T03:04:20;101615.78;;;20.63;57.56
58658;BME280;44428;45.630;13.786;2022-07-10T03:06:46;101612.13;;;20.64;57.44
58658;BME280;44428;45.630;13.786;2022-07-10T03:09:12;101612.13;;;20.64;57.57
58658;BME280;44428;45.630;13.786;2022-07-10T03:11:37;101616.31;;;20.66;57.06
58658;BME280;44428;45.630;13.786;2022-07-10T03:14:03;101601.06;;;20.67;57.00
58658;BME280;44428;45.630;13.786;2022-07-10T03:16:29;101609.81;;;20.69;56.97
58658;BME280;44428;45.630;13.786;2022-07-10T03:18:55;101603.44;;;20.70;57.00
58658;BME280;44428;45.630;13.786;2022-07-10T03:21:20;101607.13;;;20.69;57.21
58658;BME280;44428;45.630;13.786;2022-07-10T03:23:46;101602.44;;;20.71;57.35
58658;BME280;44428;45.630;13.786;2022-07-10T03:26:12;101596.38;;;20.69;57.23
58658;BME280;44428;45.630;13.786;2022-07-10T03:28:37;101605.03;;;20.63;57.53
58658;BME280;44428;45.630;13.786;2022-07-10T03:31:03;101600.66;;;20.62;57.90
58658;BME280;44428;45.630;13.786;2022-07-10T03:33:29;101599.97;;;20.59;58.21
58658;BME280;44428;45.630;13.786;2022-07-10T03:35:54;101601.38;;;20.64;58.36
58658;BME280;44428;45.630;13.786;2022-07-10T03:38:20;101599.38;;;20.66;58.54
58658;BME280;44428;45.630;13.786;2022-07-10T03:40:46;101590.94;;;20.61;58.63
58658;BME280;44428;45.630;13.786;2022-07-10T03:43:15;101594.00;;;20.66;59.00
58658;BME280;44428;45.630;13.786;2022-07-10T03:45:40;101582.56;;;20.64;58.76
58658;BME280;44428;45.630;13.786;2022-07-10T03:48:06;101594.28;;;20.63;58.81
58658;BME280;44428;45.630;13.786;2022-07-10T03:50:32;101581.88;;;20.62;58.75
58658;BME280;44428;45.630;13.786;2022-07-10T03:52:58;101575.66;;;20.61;58.88
58658;BME280;44428;45.630;13.786;2022-07-10T03:55:24;101581.25;;;20.68;59.11
58658;BME280;44428;45.630;13.786;2022-07-10T03:57:50;101581.25;;;20.68;59.14
58658;BME280;44428;45.630;13.786;2022-07-10T04:00:29;101580.66;;;20.74;58.56
58658;BME280;44428;45.630;13.786;2022-07-10T04:02:59;101585.41;;;20.80;58.59
58658;BME280;44428;45.630;13.786;2022-07-10T04:05:26;101586.41;;;20.79;58.91
58658;BME280;44428;45.630;13.786;2022-07-10T04:07:53;101576.97;;;20.75;58.66
58658;BME280;44428;45.630;13.786;2022-07-10T04:10:19;101570.97;;;20.81;58.20
58658;BME280;44428;45.630;13.786;2022-07-10T04:12:45;101574.81;;;20.96;57.09
58658;BME280;44428;45.630;13.786;2022-07-10T04:15:11;101571.34;;;21.04;56.27
58658;BME280;44428;45.630;13.786;2022-07-10T04:17:36;101576.94;;;21.11;54.84
58658;BME280;44428;45.630;13.786;2022-07-10T04:20:03;101572.63;;;21.18;54.27
58658;BME280;44428;45.630;13.786;2022-07-10T04:22:29;101567.63;;;21.23;54.00
58658;BME280;44428;45.630;13.786;2022-07-10T04:24:55;101565.72;;;21.33;53.36
58658;BME280;44428;45.630;13.786;2022-07-10T04:27:21;101551.66;;;21.39;53.72
58658;BME280;44428;45.630;13.786;2022-07-10T04:29:47;101561.09;;;21.43;54.11
58658;BME280;44428;45.630;13.786;2022-07-10T04:32:14;101565.84;;;21.49;53.67
58658;BME280;44428;45.630;13.786;2022-07-10T04:34:39;101571.94;;;21.60;52.91
58658;BME280;44428;45.630;13.786;2022-07-10T04:37:05;101583.03;;;21.57;53.47
58658;BME280;44428;45.630;13.786;2022-07-10T04:39:33;101573.00;;;21.67;52.80
58658;BME280;44428;45.630;13.786;2022-07-10T04:42:01;101573.00;;;21.67;52.37
58658;BME280;44428;45.630;13.786;2022-07-10T04:44:27;101567.00;;;21.73;52.60
58658;BME280;44428;45.630;13.786;2022-07-10T04:46:52;101561.63;;;21.73;52.55
58658;BME280;44428;45.630;13.786;2022-07-10T04:49:18;101563.28;;;21.74;52.23
58658;BME280;44428;45.630;13.786;2022-07-10T04:51:44;101568.03;;;21.80;51.85
58658;BME280;44428;45.630;13.786;2022-07-10T04:54:10;101560.97;;;21.79;52.27
58658;BME280;44428;45.630;13.786;2022-07-10T04:56:35;101560.47;;;21.84;51.62
58658;BME280;44428;45.630;13.786;2022-07-10T04:59:01;101559.69;;;21.91;51.02
58658;BME280;44428;45.630;13.786;2022-07-10T05:01:27;101551.31;;;22.03;49.80
58658;BME280;44428;45.630;13.786;2022-07-10T05:03:53;101563.13;;;22.10;50.02
58658;BME280;44428;45.630;13.786;2022-07-10T05:06:19;101557.81;;;22.26;48.99
58658;BME280;44428;45.630;13.786;2022-07-10T05:08:45;101551.78;;;22.32;49.09
58658;BME280;44428;45.630;13.786;2022-07-10T05:11:10;101551.44;;;22.35;49.19
58658;BME280;44428;45.630;13.786;2022-07-10T05:13:36;101554.81;;;22.37;49.45
58658;BME280;44428;45.630;13.786;2022-07-10T05:16:03;101549.44;;;22.37;49.14
58658;BME280;44428;45.630;13.786;2022-07-10T05:18:29;101551.44;;;22.35;49.12
58658;BME280;44428;45.630;13.786;2022-07-10T05:20:55;101547.75;;;22.36;49.27
58658;BME280;44428;45.630;13.786;2022-07-10T05:23:21;101547.09;;;22.43;48.83
58658;BME280;44428;45.630;13.786;2022-07-10T05:25:47;101545.41;;;22.41;48.69
58658;BME280;44428;45.630;13.786;2022-07-10T05:28:12;101543.06;;;22.47;48.88
58658;BME280;44428;45.630;13.786;2022-07-10T05:30:41;101534.72;;;22.99;47.38
58658;BME280;44428;45.630;13.786;2022-07-10T05:33:07;101538.00;;;23.42;46.67
58658;BME280;44428;45.630;13.786;2022-07-10T05:35:33;101538.97;;;23.82;45.74
58658;BME280;44428;45.630;13.786;2022-07-10T05:37:59;101533.91;;;23.79;45.73
58658;BME280;44428;45.630;13.786;2022-07-10T05:40:25;101544.03;;;23.68;45.62
58658;BME280;44428;45.630;13.786;2022-07-10T05:42:51;101544.00;;;23.85;44.73
58658;BME280;44428;45.630;13.786;2022-07-10T05:45:17;101535.16;;;23.99;44.76
58658;BME280;44428;45.630;13.786;2022-07-10T05:47:43;101534.81;;;24.02;44.91
58658;BME280;44428;45.630;13.786;2022-07-10T05:50:10;101537.81;;;24.07;44.92
58658;BME280;44428;45.630;13.786;2022-07-10T05:52:37;101542.97;;;24.79;43.90
58658;BME280;44428;45.630;13.786;2022-07-10T05:55:03;101543.13;;;25.39;42.11
58658;BME280;44428;45.630;13.786;2022-07-10T05:57:30;101546.31;;;25.72;40.10
58658;BME280;44428;45.630;13.786;2022-07-10T05:59:57;101540.03;;;26.16;40.17
58658;BME280;44428;45.630;13.786;2022-07-10T06:02:22;101535.47;;;26.53;39.25
58658;BME280;44428;45.630;13.786;2022-07-10T06:04:48;101542.97;;;26.93;38.45
58658;BME280;44428;45.630;13.786;2022-07-10T06:07:15;101543.84;;;27.01;38.00
58658;BME280;44428;45.630;13.786;2022-07-10T06:09:41;101540.47;;;26.99;38.05
58658;BME280;44428;45.630;13.786;2022-07-10T06:12:06;101542.00;;;27.29;37.31
58658;BME280;44428;45.630;13.786;2022-07-10T06:14:32;101535.88;;;27.83;37.10
58658;BME280;44428;45.630;13.786;2022-07-10T06:16:58;101530.81;;;28.28;35.37
58658;BME280;44428;45.630;13.786;2022-07-10T06:19:24;101531.34;;;28.65;35.18
58658;BME280;44428;45.630;13.786;2022-07-10T06:21:49;101534.72;;;28.81;35.06
58658;BME280;44428;45.630;13.786;2022-07-10T06:24:35;101538.78;;;28.23;35.29
58658;BME280;44428;45.630;13.786;2022-07-10T06:27:01;101532.81;;;27.93;36.32
58658;BME280;44428;45.630;13.786;2022-07-10T06:29:26;101525.88;;;28.45;35.65
58658;BME280;44428;45.630;13.786;2022-07-10T06:31:52;101529.28;;;28.81;35.63
58658;BME280;44428;45.630;13.786;2022-07-10T06:34:18;101527.22;;;29.03;34.22
58658;BME280;44428;45.630;13.786;2022-07-10T06:36:45;101526.56;;;29.20;34.36
58658;BME280;44428;45.630;13.786;2022-07-10T06:39:10;101520.91;;;29.22;34.79
58658;BME280;44428;45.630;13.786;2022-07-10T06:41:36;101522.13;;;29.39;34.81
58658;BME280;44428;45.630;13.786;2022-07-10T06:44:02;101524.66;;;29.28;34.33
58658;BME280;44428;45.630;13.786;2022-07-10T06:46:28;101514.63;;;28.82;35.36
58658;BME280;44428;45.630;13.786;2022-07-10T06:48:54;101513.66;;;29.81;34.85
58658;BME280;44428;45.630;13.786;2022-07-10T06:51:20;101507.19;;;30.27;32.99
58658;BME280;44428;45.630;13.786;2022-07-10T06:53:46;101508.56;;;30.68;32.80
58658;BME280;44428;45.630;13.786;2022-07-10T06:56:12;101499.91;;;31.02;32.50
58658;BME280;44428;45.630;13.786;2022-07-10T06:58:40;101502.06;;;31.74;32.79
58658;BME280;44428;45.630;13.786;2022-07-10T07:01:05;101498.34;;;31.32;33.55
58658;BME280;44428;45.630;13.786;2022-07-10T07:03:31;101501.47;;;31.17;33.82
58658;BME280;44428;45.630;13.786;2022-07-10T07:05:57;101507.66;;;30.74;34.79
58658;BME280;44428;45.630;13.786;2022-07-10T07:08:22;101511.00;;;30.12;36.03
58658;BME280;44428;45.630;13.786;2022-07-10T07:10:48;101508.97;;;29.95;37.09
58658;BME280;44428;45.630;13.786;2022-07-10T07:13:14;101511.75;;;29.88;37.82
58658;BME280;44428;45.630;13.786;2022-07-10T07:15:39;101501.97;;;29.60;38.93
58658;BME280;44428;45.630;13.786;2022-07-10T07:18:08;101506.59;;;29.60;39.62
58658;BME280;44428;45.630;13.786;2022-07-10T07:20:36;101500.72;;;29.50;39.35
58658;BME280;44428;45.630;13.786;2022-07-10T07:23:22;101505.50;;;29.81;38.69
58658;BME280;44428;45.630;13.786;2022-07-10T07:25:48;101504.13;;;29.45;39.41
58658;BME280;44428;45.630;13.786;2022-07-10T07:28:15;101516.50;;;29.28;39.85
58658;BME280;44428;45.630;13.786;2022-07-10T07:30:45;101504.59;;;29.15;39.72
58658;BME280;44428;45.630;13.786;2022-07-10T07:33:11;101503.31;;;28.85;40.05
58658;BME280;44428;45.630;13.786;2022-07-10T07:35:37;101503.94;;;28.60;41.01
58658;BME280;44428;45.630;13.786;2022-07-10T07:38:03;101504.69;;;28.27;41.47
58658;BME280;44428;45.630;13.786;2022-07-10T07:40:29;101509.78;;;27.89;42.15
58658;BME280;44428;45.630;13.786;2022-07-10T07:42:55;101506.28;;;27.54;42.98
58658;BME280;44428;45.630;13.786;2022-07-10T07:45:22;101506.19;;;27.40;43.75
58658;BME280;44428;45.630;13.786;2022-07-10T07:47:58;101505.47;;;27.60;43.40
58658;BME280;44428;45.630;13.786;2022-07-10T07:50:32;101503.97;;;27.99;42.96
58658;BME280;44428;45.630;13.786;2022-07-10T07:52:58;101505.34;;;28.29;42.34
58658;BME280;44428;45.630;13.786;2022-07-10T07:55:25;101503.53;;;28.76;40.89
58658;BME280;44428;45.630;13.786;2022-07-10T07:57:54;101512.88;;;29.60;39.69
58658;BME280;44428;45.630;13.786;2022-07-10T08:00:22;101509.38;;;29.98;38.52
58658;BME280;44428;45.630;13.786;2022-07-10T08:02:49;101503.50;;;30.01;38.54
58658;BME280;44428;45.630;13.786;2022-07-10T08:05:15;101504.69;;;30.82;38.01
58658;BME280;44428;45.630;13.786;2022-07-10T08:07:46;101504.84;;;31.12;37.73
58658;BME280;44428;45.630;13.786;2022-07-10T08:10:15;101507.03;;;31.03;37.39
58658;BME280;44428;45.630;13.786;2022-07-10T08:12:42;101508.06;;;30.84;37.68
58658;BME280;44428;45.630;13.786;2022-07-10T08:15:09;101503.69;;;31.01;38.11
58658;BME280;44428;45.630;13.786;2022-07-10T08:17:36;101497.41;;;31.44;37.55
58658;BME280;44428;45.630;13.786;2022-07-10T08:20:03;101509.50;;;31.85;36.33
58658;BME280;44428;45.630;13.786;2022-07-10T08:22:29;101504.00;;;32.22;35.56
58658;BME280;44428;45.630;13.786;2022-07-10T08:24:55;101492.97;;;32.59;35.00
58658;BME280;44428;45.630;13.786;2022-07-10T08:27:22;101496.28;;;32.61;34.35
58658;BME280;44428;45.630;13.786;2022-07-10T08:29:48;101502.94;;;32.77;34.11
58658;BME280;44428;45.630;13.786;2022-07-10T08:32:13;101498.00;;;33.33;34.04
58658;BME280;44428;45.630;13.786;2022-07-10T08:34:39;101496.25;;;33.79;33.32
58658;BME280;44428;45.630;13.786;2022-07-10T08:37:05;101500.41;;;33.81;33.16
58658;BME280;44428;45.630;13.786;2022-07-10T08:39:31;101495.81;;;33.98;33.22
58658;BME280;44428;45.630;13.786;2022-07-10T08:41:57;101499.88;;;34.25;32.34
58658;BME280;44428;45.630;13.786;2022-07-10T08:44:23;101490.75;;;34.36;32.40
58658;BME280;44428;45.630;13.786;2022-07-10T08:46:49;101488.63;;;34.38;32.38
58658;BME280;44428;45.630;13.786;2022-07-10T08:49:16;101484.66;;;34.62;32.49
58658;BME280;44428;45.630;13.786;2022-07-10T08:51:47;101489.41;;;34.84;31.41
58658;BME280;44428;45.630;13.786;2022-07-10T08:54:18;101480.28;;;35.00;32.03
58658;BME280;44428;45.630;13.786;2022-07-10T08:56:44;101480.66;;;34.87;31.70
58658;BME280;44428;45.630;13.786;2022-07-10T08:59:12;101483.78;;;35.13;32.40
58658;BME280;44428;45.630;13.786;2022-07-10T09:01:39;101476.72;;;35.17;32.06
58658;BME280;44428;45.630;13.786;2022-07-10T09:04:05;101488.03;;;35.42;31.72
58658;BME280;44428;45.630;13.786;2022-07-10T09:06:30;101474.53;;;35.58;30.42
58658;BME280;44428;45.630;13.786;2022-07-10T09:09:06;101487.47;;;35.01;31.36
58658;BME280;44428;45.630;13.786;2022-07-10T09:11:33;101473.97;;;35.17;31.22
58658;BME280;44428;45.630;13.786;2022-07-10T09:14:04;101473.31;;;35.09;31.16
58658;BME280;44428;45.630;13.786;2022-07-10T09:16:34;101474.50;;;35.14;31.26
58658;BME280;44428;45.630;13.786;2022-07-10T09:19:23;101480.88;;;35.02;31.53
58658;BME280;44428;45.630;13.786;2022-07-10T09:24:17;101487.94;;;35.32;31.13
58658;BME280;44428;45.630;13.786;2022-07-10T09:29:19;101473.34;;;34.76;29.09
58658;BME280;44428;45.630;13.786;2022-07-10T09:31:55;101475.00;;;34.60;27.79
58658;BME280;44428;45.630;13.786;2022-07-10T09:34:38;101491.13;;;34.90;27.49
58658;BME280;44428;45.630;13.786;2022-07-10T09:40:00;101485.16;;;35.71;25.45
58658;BME280;44428;45.630;13.786;2022-07-10T09:47:40;101470.66;;;35.15;25.48
58658;BME280;44428;45.630;13.786;2022-07-10T09:50:26;101477.94;;;35.26;25.76
58658;BME280;44428;45.630;13.786;2022-07-10T09:53:03;101470.13;;;35.18;24.80
58658;BME280;44428;45.630;13.786;2022-07-10T09:55:32;101468.72;;;35.37;24.11
58658;BME280;44428;45.630;13.786;2022-07-10T09:58:00;101482.09;;;35.28;23.95
58658;BME280;44428;45.630;13.786;2022-07-10T10:00:31;101474.91;;;34.38;24.87
58658;BME280;44428;45.630;13.786;2022-07-10T10:03:05;101473.16;;;34.32;25.52
58658;BME280;44428;45.630;13.786;2022-07-10T10:05:37;101463.75;;;33.99;24.78
58658;BME280;44428;45.630;13.786;2022-07-10T10:08:17;101459.81;;;33.95;24.29
58658;BME280;44428;45.630;13.786;2022-07-10T10:10:44;101463.75;;;33.99;24.59
58658;BME280;44428;45.630;13.786;2022-07-10T10:13:11;101458.25;;;33.99;24.47
58658;BME280;44428;45.630;13.786;2022-07-10T10:15:42;101468.16;;;34.29;24.00
58658;BME280;44428;45.630;13.786;2022-07-10T10:18:08;101460.19;;;34.44;25.00
58658;BME280;44428;45.630;13.786;2022-07-10T10:20:36;101458.84;;;34.30;24.11
58658;BME280;44428;45.630;13.786;2022-07-10T10:23:28;101458.13;;;34.06;24.12
58658;BME280;44428;45.630;13.786;2022-07-10T10:25:56;101456.16;;;34.18;24.73
58658;BME280;44428;45.630;13.786;2022-07-10T10:28:23;101453.34;;;34.30;25.54
58658;BME280;44428;45.630;13.786;2022-07-10T10:30:58;101457.22;;;34.62;25.83
58658;BME280;44428;45.630;13.786;2022-07-10T10:36:09;101442.91;;;34.60;23.32
58658;BME280;44428;45.630;13.786;2022-07-10T10:41:36;101454.38;;;34.57;25.68
58658;BME280;44428;45.630;13.786;2022-07-10T10:46:35;101443.88;;;34.20;26.13
58658;BME280;44428;45.630;13.786;2022-07-10T10:49:05;101448.34;;;34.27;27.54
58658;BME280;44428;45.630;13.786;2022-07-10T10:51:59;101445.38;;;34.45;26.82
58658;BME280;44428;45.630;13.786;2022-07-10T10:57:21;101436.41;;;34.67;25.50
58658;BME280;44428;45.630;13.786;2022-07-10T10:59:49;101421.38;;;34.91;24.77
58658;BME280;44428;45.630;13.786;2022-07-10T11:10:28;101421.09;;;34.71;25.18
58658;BME280;44428;45.630;13.786;2022-07-10T11:13:07;101422.59;;;34.45;24.84
58658;BME280;44428;45.630;13.786;2022-07-10T11:15:35;101426.56;;;34.37;25.91
58658;BME280;44428;45.630;13.786;2022-07-10T11:18:07;101425.94;;;34.47;26.28
58658;BME280;44428;45.630;13.786;2022-07-10T11:20:38;101422.50;;;33.77;27.74
58658;BME280;44428;45.630;13.786;2022-07-10T11:26:08;101421.94;;;33.63;29.60
58658;BME280;44428;45.630;13.786;2022-07-10T11:28:49;101421.75;;;33.53;26.68
58658;BME280;44428;45.630;13.786;2022-07-10T11:31:15;101423.41;;;33.54;27.26
58658;BME280;44428;45.630;13.786;2022-07-10T11:33:46;101421.50;;;33.43;25.99
58658;BME280;44428;45.630;13.786;2022-07-10T11:36:17;101418.66;;;33.38;27.97
58658;BME280;44428;45.630;13.786;2022-07-10T11:38:44;101423.66;;;33.41;25.10
58658;BME280;44428;45.630;13.786;2022-07-10T11:41:18;101419.78;;;33.65;22.92
58658;BME280;44428;45.630;13.786;2022-07-10T11:44:00;101415.56;;;34.03;22.58
58658;BME280;44428;45.630;13.786;2022-07-10T11:46:28;101410.28;;;34.13;19.65
58658;BME280;44428;45.630;13.786;2022-07-10T11:48:54;101410.69;;;34.05;20.82
58658;BME280;44428;45.630;13.786;2022-07-10T11:51:30;101408.81;;;34.23;22.30
58658;BME280;44428;45.630;13.786;2022-07-10T11:56:33;101400.50;;;35.29;21.43
58658;BME280;44428;45.630;13.786;2022-07-10T11:59:04;101400.00;;;35.32;21.54
58658;BME280;44428;45.630;13.786;2022-07-10T12:01:35;101392.25;;;35.29;21.37
58658;BME280;44428;45.630;13.786;2022-07-10T12:04:02;101398.47;;;34.30;22.46
58658;BME280;44428;45.630;13.786;2022-07-10T12:06:31;101384.69;;;34.58;22.52
58658;BME280;44428;45.630;13.786;2022-07-10T12:09:04;101395.09;;;34.23;22.67
58658;BME280;44428;45.630;13.786;2022-07-10T12:11:30;101392.50;;;33.18;23.43
58658;BME280;44428;45.630;13.786;2022-07-10T12:14:19;101395.28;;;32.48;26.28
58658;BME280;44428;45.630;13.786;2022-07-10T12:16:47;101385.91;;;32.02;26.26
58658;BME280;44428;45.630;13.786;2022-07-10T12:19:17;101379.16;;;31.86;27.39
58658;BME280;44428;45.630;13.786;2022-07-10T12:21:45;101385.69;;;31.55;27.01
58658;BME280;44428;45.630;13.786;2022-07-10T12:24:12;101385.38;;;31.63;26.60
58658;BME280;44428;45.630;13.786;2022-07-10T12:26:40;101387.06;;;31.27;27.41
58658;BME280;44428;45.630;13.786;2022-07-10T12:31:46;101384.19;;;30.85;28.64
58658;BME280;44428;45.630;13.786;2022-07-10T12:34:12;101376.47;;;30.57;29.89
58658;BME280;44428;45.630;13.786;2022-07-10T12:36:52;101387.03;;;30.72;30.57
58658;BME280;44428;45.630;13.786;2022-07-10T12:39:23;101389.19;;;30.88;31.08
58658;BME280;44428;45.630;13.786;2022-07-10T12:42:06;101385.88;;;30.61;30.63
58658;BME280;44428;45.630;13.786;2022-07-10T12:44:43;101393.66;;;30.57;31.34
58658;BME280;44428;45.630;13.786;2022-07-10T12:47:14;101393.22;;;30.61;31.26
58658;BME280;44428;45.630;13.786;2022-07-10T12:50:02;101400.16;;;30.38;32.12
58658;BME280;44428;45.630;13.786;2022-07-10T12:52:31;101398.34;;;30.50;32.96
58658;BME280;44428;45.630;13.786;2022-07-10T12:55:17;101402.34;;;30.16;33.25
58658;BME280;44428;45.630;13.786;2022-07-10T13:00:49;101398.31;;;30.32;32.64
58658;BME280;44428;45.630;13.786;2022-07-10T13:03:20;101396.13;;;30.09;31.77
58658;BME280;44428;45.630;13.786;2022-07-10T13:05:48;101398.72;;;29.97;31.67
58658;BME280;44428;45.630;13.786;2022-07-10T13:08:18;101395.56;;;30.00;32.17
58658;BME280;44428;45.630;13.786;2022-07-10T13:10:49;101396.63;;;29.99;31.61
58658;BME280;44428;45.630;13.786;2022-07-10T13:13:15;101394.41;;;30.15;32.02
58658;BME280;44428;45.630;13.786;2022-07-10T13:15:42;101392.22;;;30.30;32.41
58658;BME280;44428;45.630;13.786;2022-07-10T13:18:25;101391.66;;;30.46;32.29
58658;BME280;44428;45.630;13.786;2022-07-10T13:20:53;101388.16;;;30.39;32.31
58658;BME280;44428;45.630;13.786;2022-07-10T13:23:20;101390.13;;;30.32;33.08
58658;BME280;44428;45.630;13.786;2022-07-10T13:26:00;101391.84;;;30.26;33.30
58658;BME280;44428;45.630;13.786;2022-07-10T13:28:27;101381.66;;;30.40;33.88